Albert Maersk — OUOW2 — position and weather

sailwx.info

Track history (hours):
 
Tides and Currents Weather Stations Pressure Air Temp Water Temp Dewpoint Dewpoint Depression Visibility Wind Speed Wind Dir Waves Ship Positions

Albert Maersk

Last reported at 2014-Sep-18 18:00 UTC. Time now 2014-Sep-18 21:47 UTC.
Position N 32°18' W 077°42'.

MMSI: 220259928.

Wind from 340 at 10 knots

Waves 0.5 meters (2 feet), 3 second period

Barometer 1014.9 mb
Air temperature 30.0 ° C
Visibility: greater than 10.8 NM
Dewpoint 27.3 ° C
Water temperature 32.0 ° C

Date/timePositionNaut miles runAvg speedWind from/ knotsBaromVisibWave heightAir tempDewpointWater temp
2014-Sep-18 18:00N 32°18' W 077°42'16516.6 340 / 101014.910.8 0.530.027.332.0
2014-Sep-18 08:06N 32°03' W 080°56'510.2
2014-Sep-18 07:33N 32°06' W 081°00'6 5.7
2014-Sep-18 06:33N 32°06' W 081°07'2 2.3
2014-Sep-18 05:33N 32°08' W 081°09'0 0.0
2014-Sep-18 04:33N 32°08' W 081°09'0 0.0
2014-Sep-18 03:33N 32°08' W 081°09'0 0.0
2014-Sep-18 02:33N 32°08' W 081°09'0 0.0
2014-Sep-18 01:33N 32°08' W 081°09'0 0.0
2014-Sep-18 00:33N 32°08' W 081°09'0 0.0
2014-Sep-17 23:32N 32°08' W 081°09'0 0.0
2014-Sep-17 22:27N 32°08' W 081°09'0 0.0
2014-Sep-17 21:33N 32°08' W 081°09'0 0.0
2014-Sep-17 20:33N 32°08' W 081°09'0 0.0
2014-Sep-17 19:32N 32°08' W 081°09'0 0.0
2014-Sep-17 18:30N 32°08' W 081°09'0 0.0
2014-Sep-17 17:33N 32°08' W 081°09'0 0.0
2014-Sep-17 16:30N 32°08' W 081°09'0 0.0
2014-Sep-17 15:33N 32°08' W 081°09'0 0.0
2014-Sep-17 14:33N 32°08' W 081°09'0 0.0
2014-Sep-17 13:33N 32°08' W 081°09'0 0.0
2014-Sep-17 12:30N 32°08' W 081°09'0 0.0
2014-Sep-17 10:09N 32°08' W 081°09'0 0.0
2014-Sep-17 09:21N 32°08' W 081°09'0 0.0
2014-Sep-17 07:27N 32°08' W 081°09'0 0.0
2014-Sep-17 05:33N 32°08' W 081°09'0 0.0
2014-Sep-17 04:30N 32°08' W 081°09'0 0.0
2014-Sep-17 03:15N 32°08' W 081°09'0 0.0
2014-Sep-17 02:33N 32°08' W 081°09'0 0.0
2014-Sep-17 01:32N 32°08' W 081°09'0 0.0
2014-Sep-17 00:33N 32°08' W 081°09'0 0.0
2014-Sep-16 23:21N 32°08' W 081°09'0 0.0
2014-Sep-16 22:32N 32°08' W 081°09'0 0.0
2014-Sep-16 21:27N 32°08' W 081°09'0 0.0
2014-Sep-16 19:31N 32°08' W 081°09'3 3.0
2014-Sep-16 18:27N 32°06' W 081°06'6 6.6
2014-Sep-16 17:34N 32°06' W 080°60'1110.0
2014-Sep-16 16:30N 32°01' W 080°48'38011.4
2014-Sep-15 07:16N 36°49' W 075°47'1216.4
2014-Sep-15 06:30N 36°56' W 075°59'1415.0
2014-Sep-15 05:33N 37°00' W 076°17'9 3.6
2014-Sep-15 03:11N 36°52' W 076°21'0 0.0
2014-Sep-15 02:33N 36°52' W 076°21'0 0.0
2014-Sep-15 01:33N 36°52' W 076°21'0 0.0
2014-Sep-15 00:32N 36°52' W 076°21'0 0.0
2014-Sep-14 23:33N 36°52' W 076°21'0 0.0
2014-Sep-14 22:33N 36°52' W 076°21'0 0.0
2014-Sep-14 21:33N 36°52' W 076°21'0 0.0
2014-Sep-14 20:33N 36°52' W 076°21'0 0.0
2014-Sep-14 19:33N 36°52' W 076°21'0 0.0
2014-Sep-14 18:32N 36°52' W 076°21'0 0.0
2014-Sep-14 17:33N 36°52' W 076°21'0 0.0
2014-Sep-14 16:33N 36°52' W 076°21'0 0.0
2014-Sep-14 15:18N 36°52' W 076°21'0 0.0
2014-Sep-14 14:31N 36°52' W 076°21'0 0.0
2014-Sep-14 13:33N 36°52' W 076°21'0 0.0
2014-Sep-14 12:33N 36°52' W 076°21'0 0.0
2014-Sep-14 11:32N 36°52' W 076°21'0 0.0
2014-Sep-14 10:33N 36°52' W 076°21'0 0.2
2014-Sep-14 09:34N 36°53' W 076°21'6 6.2
2014-Sep-14 08:31N 36°59' W 076°20'1414.9
2014-Sep-14 07:33N 36°57' W 076°02'10 9.7
2014-Sep-14 06:33N 36°52' W 075°51'1010.3
2014-Sep-14 05:33N 36°50' W 075°39'4 0.1
2014-Sep-13 00:04N 36°50' W 075°34'23311.9
2014-Sep-12 04:33N 40°28' W 073°51'18 1.8
2014-Sep-11 18:27N 40°40' W 074°09'0 0.0
2014-Sep-11 17:21N 40°40' W 074°09'0 0.0
2014-Sep-11 16:30N 40°40' W 074°09'0 0.0
2014-Sep-11 15:33N 40°40' W 074°09'0 0.0
2014-Sep-11 14:33N 40°40' W 074°09'0 0.0
2014-Sep-11 13:33N 40°40' W 074°09'0 0.0
2014-Sep-11 12:33N 40°40' W 074°09'0 0.0
2014-Sep-11 11:33N 40°40' W 074°09'0 0.0
2014-Sep-11 08:18N 40°40' W 074°09'0 0.0
2014-Sep-11 07:12N 40°40' W 074°09'0 0.0
2014-Sep-11 06:27N 40°40' W 074°09'0 0.0
2014-Sep-11 05:30N 40°40' W 074°09'0 0.0
2014-Sep-11 04:33N 40°40' W 074°09'0 0.0
2014-Sep-11 03:33N 40°40' W 074°09'0 0.0
2014-Sep-11 02:33N 40°40' W 074°09'0 0.0
2014-Sep-11 01:33N 40°40' W 074°09'0 0.0
2014-Sep-11 00:33N 40°40' W 074°09'0 0.0
2014-Sep-10 23:12N 40°40' W 074°09'0 0.0
2014-Sep-10 22:33N 40°40' W 074°09'0 0.0
2014-Sep-10 21:33N 40°40' W 074°09'0 0.0
2014-Sep-10 20:33N 40°40' W 074°09'0 0.0
2014-Sep-10 19:33N 40°40' W 074°09'0 0.0
2014-Sep-10 18:33N 40°40' W 074°09'0 0.0
2014-Sep-10 15:27N 40°40' W 074°09'0 0.0
2014-Sep-10 14:24N 40°40' W 074°09'0 0.0
2014-Sep-10 13:27N 40°40' W 074°09'0 0.0
2014-Sep-10 10:24N 40°40' W 074°09'0 0.1
2014-Sep-10 09:31N 40°40' W 074°09'2 2.3
2014-Sep-10 08:33N 40°39' W 074°06'8 8.1
2014-Sep-10 07:33N 40°32' W 074°01'1211.5
2014-Sep-10 06:33N 40°27' W 073°47'1411.5
2014-Sep-10 05:22N 40°28' W 073°29'3116.9
2014-Sep-10 03:33N 40°29' W 072°49'1716.6
2014-Sep-10 02:30N 40°29' W 072°26'1516.0
2014-Sep-10 01:33N 40°30' W 072°06'1616.1
2014-Sep-10 00:33N 40°31' W 071°45'1616.2
2014-Sep-09 23:33N 40°31' W 071°24'1616.1
2014-Sep-09 22:33N 40°31' W 071°03'1616.5
2014-Sep-09 21:33N 40°31' W 070°41'1716.7
2014-Sep-09 20:33N 40°32' W 070°19'4518.5
2014-Sep-09 18:07N 40°34' W 069°19'1218.5
2014-Sep-09 17:26N 40°34' W 069°03'46519.8
2014-Sep-08 18:00N 40°06' W 058°54'   030 / 331023.0 5.4 1.523.019.924.0
Track history (hours):
 
Tides and Currents Weather Stations Pressure Air Temp Water Temp Dewpoint Dewpoint Depression Visibility Wind Speed Wind Dir Waves Ship Positions

Albert Maersk

Last reported at 2014-Sep-18 18:00 UTC. Time now 2014-Sep-18 21:47 UTC.
Position N 32°18' W 077°42'.

MMSI: 220259928.

Wind from 340 at 10 knots

Waves 0.5 meters (2 feet), 3 second period

Barometer 1014.9 mb
Air temperature 30.0 ° C
Visibility: greater than 10.8 NM
Dewpoint 27.3 ° C
Water temperature 32.0 ° C

Date/timePositionNaut miles runAvg speedWind from/ knotsBaromVisibWave heightAir tempDewpointWater temp
2014-Sep-18 18:00N 32°18' W 077°42'16516.6 340 / 101014.910.8 0.530.027.332.0
2014-Sep-18 08:06N 32°03' W 080°56'510.2
2014-Sep-18 07:33N 32°06' W 081°00'6 5.7
2014-Sep-18 06:33N 32°06' W 081°07'2 2.3
2014-Sep-18 05:33N 32°08' W 081°09'0 0.0
2014-Sep-18 04:33N 32°08' W 081°09'0 0.0
2014-Sep-18 03:33N 32°08' W 081°09'0 0.0
2014-Sep-18 02:33N 32°08' W 081°09'0 0.0
2014-Sep-18 01:33N 32°08' W 081°09'0 0.0
2014-Sep-18 00:33N 32°08' W 081°09'0 0.0
2014-Sep-17 23:32N 32°08' W 081°09'0 0.0
2014-Sep-17 22:27N 32°08' W 081°09'0 0.0
2014-Sep-17 21:33N 32°08' W 081°09'0 0.0
2014-Sep-17 20:33N 32°08' W 081°09'0 0.0
2014-Sep-17 19:32N 32°08' W 081°09'0 0.0
2014-Sep-17 18:30N 32°08' W 081°09'0 0.0
2014-Sep-17 17:33N 32°08' W 081°09'0 0.0
2014-Sep-17 16:30N 32°08' W 081°09'0 0.0
2014-Sep-17 15:33N 32°08' W 081°09'0 0.0
2014-Sep-17 14:33N 32°08' W 081°09'0 0.0
2014-Sep-17 13:33N 32°08' W 081°09'0 0.0
2014-Sep-17 12:30N 32°08' W 081°09'0 0.0
2014-Sep-17 10:09N 32°08' W 081°09'0 0.0
2014-Sep-17 09:21N 32°08' W 081°09'0 0.0
2014-Sep-17 07:27N 32°08' W 081°09'0 0.0
2014-Sep-17 05:33N 32°08' W 081°09'0 0.0
2014-Sep-17 04:30N 32°08' W 081°09'0 0.0
2014-Sep-17 03:15N 32°08' W 081°09'0 0.0
2014-Sep-17 02:33N 32°08' W 081°09'0 0.0
2014-Sep-17 01:32N 32°08' W 081°09'0 0.0
2014-Sep-17 00:33N 32°08' W 081°09'0 0.0
2014-Sep-16 23:21N 32°08' W 081°09'0 0.0
2014-Sep-16 22:32N 32°08' W 081°09'0 0.0
2014-Sep-16 21:27N 32°08' W 081°09'0 0.0
2014-Sep-16 19:31N 32°08' W 081°09'3 3.0
2014-Sep-16 18:27N 32°06' W 081°06'6 6.6
2014-Sep-16 17:34N 32°06' W 080°60'1110.0
2014-Sep-16 16:30N 32°01' W 080°48'38011.4
2014-Sep-15 07:16N 36°49' W 075°47'1216.4
2014-Sep-15 06:30N 36°56' W 075°59'1415.0
2014-Sep-15 05:33N 37°00' W 076°17'9 3.6
2014-Sep-15 03:11N 36°52' W 076°21'0 0.0
2014-Sep-15 02:33N 36°52' W 076°21'0 0.0
2014-Sep-15 01:33N 36°52' W 076°21'0 0.0
2014-Sep-15 00:32N 36°52' W 076°21'0 0.0
2014-Sep-14 23:33N 36°52' W 076°21'0 0.0
2014-Sep-14 22:33N 36°52' W 076°21'0 0.0
2014-Sep-14 21:33N 36°52' W 076°21'0 0.0
2014-Sep-14 20:33N 36°52' W 076°21'0 0.0
2014-Sep-14 19:33N 36°52' W 076°21'0 0.0
2014-Sep-14 18:32N 36°52' W 076°21'0 0.0
2014-Sep-14 17:33N 36°52' W 076°21'0 0.0
2014-Sep-14 16:33N 36°52' W 076°21'0 0.0
2014-Sep-14 15:18N 36°52' W 076°21'0 0.0
2014-Sep-14 14:31N 36°52' W 076°21'0 0.0
2014-Sep-14 13:33N 36°52' W 076°21'0 0.0
2014-Sep-14 12:33N 36°52' W 076°21'0 0.0
2014-Sep-14 11:32N 36°52' W 076°21'0 0.0
2014-Sep-14 10:33N 36°52' W 076°21'0 0.2
2014-Sep-14 09:34N 36°53' W 076°21'6 6.2
2014-Sep-14 08:31N 36°59' W 076°20'1414.9
2014-Sep-14 07:33N 36°57' W 076°02'10 9.7
2014-Sep-14 06:33N 36°52' W 075°51'1010.3
2014-Sep-14 05:33N 36°50' W 075°39'4 0.1
2014-Sep-13 00:04N 36°50' W 075°34'23311.9
2014-Sep-12 04:33N 40°28' W 073°51'18 1.8
2014-Sep-11 18:27N 40°40' W 074°09'0 0.0
2014-Sep-11 17:21N 40°40' W 074°09'0 0.0
2014-Sep-11 16:30N 40°40' W 074°09'0 0.0
2014-Sep-11 15:33N 40°40' W 074°09'0 0.0
2014-Sep-11 14:33N 40°40' W 074°09'0 0.0
2014-Sep-11 13:33N 40°40' W 074°09'0 0.0
2014-Sep-11 12:33N 40°40' W 074°09'0 0.0
2014-Sep-11 11:33N 40°40' W 074°09'0 0.0
2014-Sep-11 08:18N 40°40' W 074°09'0 0.0
2014-Sep-11 07:12N 40°40' W 074°09'0 0.0
2014-Sep-11 06:27N 40°40' W 074°09'0 0.0
2014-Sep-11 05:30N 40°40' W 074°09'0 0.0
2014-Sep-11 04:33N 40°40' W 074°09'0 0.0
2014-Sep-11 03:33N 40°40' W 074°09'0 0.0
2014-Sep-11 02:33N 40°40' W 074°09'0 0.0
2014-Sep-11 01:33N 40°40' W 074°09'0 0.0
2014-Sep-11 00:33N 40°40' W 074°09'0 0.0
2014-Sep-10 23:12N 40°40' W 074°09'0 0.0
2014-Sep-10 22:33N 40°40' W 074°09'0 0.0
2014-Sep-10 21:33N 40°40' W 074°09'0 0.0
2014-Sep-10 20:33N 40°40' W 074°09'0 0.0
2014-Sep-10 19:33N 40°40' W 074°09'0 0.0
2014-Sep-10 18:33N 40°40' W 074°09'0 0.0
2014-Sep-10 15:27N 40°40' W 074°09'0 0.0
2014-Sep-10 14:24N 40°40' W 074°09'0 0.0
2014-Sep-10 13:27N 40°40' W 074°09'0 0.0
2014-Sep-10 10:24N 40°40' W 074°09'0 0.1
2014-Sep-10 09:31N 40°40' W 074°09'2 2.3
2014-Sep-10 08:33N 40°39' W 074°06'8 8.1
2014-Sep-10 07:33N 40°32' W 074°01'1211.5
2014-Sep-10 06:33N 40°27' W 073°47'1411.5
2014-Sep-10 05:22N 40°28' W 073°29'3116.9
2014-Sep-10 03:33N 40°29' W 072°49'1716.6
2014-Sep-10 02:30N 40°29' W 072°26'1516.0
2014-Sep-10 01:33N 40°30' W 072°06'1616.1
2014-Sep-10 00:33N 40°31' W 071°45'1616.2
2014-Sep-09 23:33N 40°31' W 071°24'1616.1
2014-Sep-09 22:33N 40°31' W 071°03'1616.5
2014-Sep-09 21:33N 40°31' W 070°41'1716.7
2014-Sep-09 20:33N 40°32' W 070°19'4518.5
2014-Sep-09 18:07N 40°34' W 069°19'1218.5
2014-Sep-09 17:26N 40°34' W 069°03'46519.8
2014-Sep-08 18:00N 40°06' W 058°54'   030 / 331023.0 5.4 1.523.019.924.0

Dump ship's entire track history